Jeanne Sea Qua — WD16406 — position and weather

sailwx.info

Track history (hours):
 
Tides and Currents Weather Stations Pressure Air Temp Water Temp Dewpoint Dewpoint Depression Visibility Wind Speed Wind Dir Waves Ship Positions

Jeanne Sea Qua

Last reported at 2018-Jun-17 14:25 UTC. Time now 2018-Jun-18 13:10 UTC.
Position N 48°37' W 123°09'.

Length 22 m.

Type: Pleasure craft. MMSI: 367718380.

Date/timePositionNaut miles runAvg speedWind from/ knotsBaromVisibWave heightAir tempDewpointWater temp
2018-Jun-17 14:25N 48°37' W 123°09'0 0.0
2018-Jun-17 13:55N 48°37' W 123°09'0 0.0
2018-Jun-17 12:13N 48°37' W 123°09'0 0.0
2018-Jun-17 11:55N 48°37' W 123°09'0 0.0
2018-Jun-17 11:07N 48°37' W 123°09'0 0.0
2018-Jun-17 10:55N 48°37' W 123°09'0 0.0
2018-Jun-17 10:28N 48°37' W 123°09'0 0.0
2018-Jun-17 09:58N 48°37' W 123°09'0 0.0
2018-Jun-17 09:25N 48°37' W 123°09'0 0.0
2018-Jun-16 14:28N 48°37' W 123°09'0 0.0
2018-Jun-16 13:58N 48°37' W 123°09'0 0.0
2018-Jun-16 13:28N 48°37' W 123°09'0 0.0
2018-Jun-16 12:46N 48°37' W 123°09'0 0.0
2018-Jun-16 12:28N 48°37' W 123°09'0 0.0
2018-Jun-16 11:40N 48°37' W 123°09'0 0.0
2018-Jun-16 11:25N 48°37' W 123°09'0 0.0
2018-Jun-16 10:58N 48°37' W 123°09'0 0.0
2018-Jun-16 10:28N 48°37' W 123°09'0 0.0
2018-Jun-16 09:58N 48°37' W 123°09'0 0.0
2018-Jun-16 09:22N 48°37' W 123°09'0 0.0
2018-Jun-14 13:53N 48°37' W 123°09'0 0.0
2018-Jun-14 13:20N 48°37' W 123°09'0 0.0
2018-Jun-14 12:59N 48°37' W 123°09'0 0.0
2018-Jun-14 12:29N 48°37' W 123°09'0 0.0
2018-Jun-14 11:56N 48°37' W 123°09'0 0.0
2018-Jun-14 11:26N 48°37' W 123°09'0 0.0
2018-Jun-14 10:56N 48°37' W 123°09'0 0.0
2018-Jun-14 10:26N 48°37' W 123°09'0 0.0
2018-Jun-14 09:59N 48°37' W 123°09'0 0.0
2018-Jun-14 09:26N 48°37' W 123°09'0 0.0
2018-Jun-14 08:56N 48°37' W 123°09'0 0.0
2018-Jun-14 08:29N 48°37' W 123°09'0 0.0
2018-Jun-14 07:56N 48°37' W 123°09'0 0.0
2018-Jun-14 07:26N 48°37' W 123°09'1 0.1
2018-Jun-13 18:26N 48°38' W 123°11'4 8.2
2018-Jun-13 17:57N 48°41' W 123°14'4 8.8
2018-Jun-13 17:29N 48°44' W 123°17'5 9.0
2018-Jun-13 16:59N 48°48' W 123°20'1410.1
2018-Jun-13 15:37N 49°02' W 123°20'610.7
2018-Jun-13 15:05N 49°08' W 123°20'110.3
2018-Jun-13 14:58N 49°09' W 123°20'510.1
2018-Jun-13 14:28N 49°14' W 123°18'510.0
2018-Jun-13 13:56N 49°18' W 123°13'4 9.8
2018-Jun-13 13:29N 49°18' W 123°07'1 1.0
2018-Jun-13 12:55N 49°18' W 123°08'0 0.0
2018-Jun-13 12:28N 49°18' W 123°08'0 0.0
2018-Jun-13 11:55N 49°18' W 123°08'0 0.0
2018-Jun-13 11:28N 49°18' W 123°08'0 0.0
2018-Jun-13 10:58N 49°18' W 123°08'0 0.0
2018-Jun-13 10:25N 49°18' W 123°08'0 0.0
2018-Jun-13 09:58N 49°18' W 123°08'0 0.0
2018-Jun-13 09:28N 49°18' W 123°08'0 0.0
2018-Jun-13 08:58N 49°18' W 123°08'0 0.0
2018-Jun-13 08:28N 49°18' W 123°08'0 0.0
2018-Jun-13 07:55N 49°18' W 123°08'0 0.1
2018-Jun-13 07:28N 49°18' W 123°07'0 0.1
2018-Jun-13 06:58N 49°18' W 123°08'0 0.0
2018-Jun-13 06:25N 49°18' W 123°08'0 0.0
2018-Jun-13 05:58N 49°18' W 123°08'0 0.0
2018-Jun-13 05:28N 49°18' W 123°08'0 0.0
2018-Jun-13 04:55N 49°18' W 123°08'0 0.0
2018-Jun-13 04:22N 49°18' W 123°08'0 0.1
2018-Jun-13 03:58N 49°18' W 123°07'0 0.1
2018-Jun-13 03:28N 49°18' W 123°08'0 0.0
2018-Jun-13 02:55N 49°18' W 123°08'0 0.0
2018-Jun-13 02:28N 49°18' W 123°08'0 0.0
2018-Jun-13 01:58N 49°18' W 123°08'0 0.0
2018-Jun-13 01:28N 49°18' W 123°08'0 0.1
2018-Jun-13 00:52N 49°18' W 123°07'0 0.0
2018-Jun-13 00:28N 49°18' W 123°07'0 0.1
2018-Jun-12 23:58N 49°18' W 123°08'0 0.0
2018-Jun-12 23:25N 49°18' W 123°08'0 0.0
2018-Jun-12 22:58N 49°18' W 123°08'0 0.0
2018-Jun-12 22:28N 49°18' W 123°08'0 0.0
2018-Jun-12 21:52N 49°18' W 123°08'0 0.0
2018-Jun-12 21:22N 49°18' W 123°08'0 0.0
2018-Jun-12 20:55N 49°18' W 123°08'0 0.0
2018-Jun-12 20:25N 49°18' W 123°08'0 0.0
2018-Jun-12 19:49N 49°18' W 123°08'0 0.0
2018-Jun-12 19:28N 49°18' W 123°08'0 0.0
2018-Jun-12 18:55N 49°18' W 123°08'0 0.0
2018-Jun-12 18:25N 49°18' W 123°08'0 0.0
2018-Jun-12 17:49N 49°18' W 123°08'0 0.0
2018-Jun-12 17:25N 49°18' W 123°08'0 0.0
2018-Jun-12 16:55N 49°18' W 123°08'0 0.0
2018-Jun-12 16:25N 49°18' W 123°08'0 0.0
2018-Jun-12 15:58N 49°18' W 123°08'0 0.0
2018-Jun-12 15:28N 49°18' W 123°08'0 0.0
2018-Jun-12 14:58N 49°18' W 123°08'0 0.0
2018-Jun-12 14:28N 49°18' W 123°08'0 0.0
2018-Jun-12 13:58N 49°18' W 123°08'0 0.0
2018-Jun-12 13:28N 49°18' W 123°08'0 0.0
2018-Jun-12 12:58N 49°18' W 123°08'0 0.0
2018-Jun-12 12:28N 49°18' W 123°08'0 0.0
2018-Jun-12 11:58N 49°18' W 123°08'0 0.0
2018-Jun-12 11:28N 49°18' W 123°08'0 0.0
2018-Jun-12 10:58N 49°18' W 123°08'0 0.0
2018-Jun-12 10:28N 49°18' W 123°08'0 0.0
2018-Jun-12 09:58N 49°18' W 123°08'0 0.0
2018-Jun-12 09:28N 49°18' W 123°08'0 0.0
2018-Jun-12 08:58N 49°18' W 123°08'0 0.0
2018-Jun-12 08:28N 49°18' W 123°08'0 0.0
2018-Jun-12 07:58N 49°18' W 123°08'0 0.1
2018-Jun-12 07:28N 49°18' W 123°07'0 0.1
2018-Jun-12 06:58N 49°18' W 123°08'0 0.0
2018-Jun-12 06:28N 49°18' W 123°08'0 0.0
2018-Jun-12 05:58N 49°18' W 123°08'0 0.0
2018-Jun-12 05:28N 49°18' W 123°08'0 0.0
2018-Jun-12 04:58N 49°18' W 123°08'0 0.0
2018-Jun-12 04:28N 49°18' W 123°08'0 0.0
2018-Jun-12 03:52N 49°18' W 123°08'0 0.0
2018-Jun-12 03:10N 49°18' W 123°08'0 0.0
2018-Jun-12 02:52N 49°18' W 123°08'0 0.0
2018-Jun-12 02:28N 49°18' W 123°08'0 0.0
2018-Jun-12 01:58N 49°18' W 123°08'0 0.0
2018-Jun-12 01:28N 49°18' W 123°08'0 0.0
2018-Jun-12 00:58N 49°18' W 123°08'0 0.5
2018-Jun-12 00:21N 49°18' W 123°07'0 0.9
2018-Jun-12 00:00N 49°18' W 123°08'0 0.0
2018-Jun-11 23:30N 49°18' W 123°08'0 0.0
2018-Jun-11 23:00N 49°18' W 123°08'0 0.0
2018-Jun-11 22:30N 49°18' W 123°08'0 0.0
2018-Jun-11 22:00N 49°18' W 123°08'0 0.0
2018-Jun-11 21:30N 49°18' W 123°08'0 0.0
2018-Jun-11 21:00N 49°18' W 123°08'0 0.0
2018-Jun-11 20:30N 49°18' W 123°08'0 0.0
2018-Jun-11 20:00N 49°18' W 123°08'0 0.0
2018-Jun-11 19:30N 49°18' W 123°08'0 0.0
2018-Jun-11 19:00N 49°18' W 123°08'0 0.0
2018-Jun-11 18:30N 49°18' W 123°08'0 0.0
2018-Jun-11 17:58N 49°18' W 123°08'0 0.0
2018-Jun-11 17:28N 49°18' W 123°08'0 0.0
2018-Jun-11 16:58N 49°18' W 123°08'0 0.0
2018-Jun-11 16:28N 49°18' W 123°08'0 0.0
2018-Jun-11 15:52N 49°18' W 123°08'0 0.0
2018-Jun-11 15:28N 49°18' W 123°08'0 0.0
2018-Jun-11 14:58N 49°18' W 123°08'0 0.0
2018-Jun-11 14:28N 49°18' W 123°08'0 0.0
2018-Jun-11 13:55N 49°18' W 123°08'0 0.0
2018-Jun-11 13:28N 49°18' W 123°08'0 0.0
2018-Jun-11 12:58N 49°18' W 123°08'0 0.0
2018-Jun-11 12:28N 49°18' W 123°08'0 0.0
2018-Jun-11 11:58N 49°18' W 123°08'0 0.0
2018-Jun-11 11:28N 49°18' W 123°08'0 0.0
2018-Jun-11 10:58N 49°18' W 123°08'0 0.0
2018-Jun-11 10:25N 49°18' W 123°08'0 0.0
2018-Jun-11 09:58N 49°18' W 123°08'0 0.0
2018-Jun-11 09:28N 49°18' W 123°08'0 0.0
2018-Jun-11 08:58N 49°18' W 123°08'0 0.0
2018-Jun-11 08:28N 49°18' W 123°08'0 0.0
2018-Jun-11 07:58N 49°18' W 123°08'0 0.0
2018-Jun-11 07:28N 49°18' W 123°08'0 0.0
2018-Jun-11 06:58N 49°18' W 123°08'0 0.0
2018-Jun-11 06:25N 49°18' W 123°08'0 0.0
2018-Jun-11 05:58N 49°18' W 123°08'0 0.0
2018-Jun-11 05:28N 49°18' W 123°08'0 0.0
2018-Jun-11 04:40N 49°18' W 123°08'0 0.0
2018-Jun-11 04:28N 49°18' W 123°08'0 0.0
2018-Jun-11 03:58N 49°18' W 123°08'0 0.0
2018-Jun-11 03:22N 49°18' W 123°08'0 0.0
2018-Jun-11 02:58N 49°18' W 123°08'0 0.0
2018-Jun-11 02:28N 49°18' W 123°08'0 0.0
2018-Jun-11 01:52N 49°18' W 123°08'0 0.0
2018-Jun-11 01:28N 49°18' W 123°08'0 0.0
2018-Jun-11 00:58N 49°18' W 123°08'0 0.0
2018-Jun-11 00:28N 49°18' W 123°08'0 0.0
2018-Jun-10 23:46N 49°18' W 123°08'0 0.0
2018-Jun-10 23:28N 49°18' W 123°08'0 0.0
2018-Jun-10 22:58N 49°18' W 123°08'0 0.0
2018-Jun-10 22:28N 49°18' W 123°08'0 0.0
2018-Jun-10 21:58N 49°18' W 123°08'0 0.0
2018-Jun-10 21:28N 49°18' W 123°08'0 0.0
2018-Jun-10 20:58N 49°18' W 123°08'0 0.0
2018-Jun-10 20:16N 49°18' W 123°08'0 0.0
2018-Jun-10 19:58N 49°18' W 123°08'0 0.0
2018-Jun-10 19:28N 49°18' W 123°08'0 0.0
2018-Jun-10 18:52N 49°18' W 123°08'0 0.0
2018-Jun-10 18:22N 49°18' W 123°08'0 0.0
2018-Jun-10 17:58N 49°18' W 123°08'0 0.0
2018-Jun-10 17:28N 49°18' W 123°08'0 0.0
2018-Jun-10 16:58N 49°18' W 123°08'0 0.0
2018-Jun-10 16:28N 49°18' W 123°08'0 0.0
2018-Jun-10 15:58N 49°18' W 123°08'0 0.0
2018-Jun-10 15:28N 49°18' W 123°08'0 0.0
2018-Jun-10 14:58N 49°18' W 123°08'0 0.0
2018-Jun-10 14:28N 49°18' W 123°08'0 0.0
2018-Jun-10 13:28N 49°18' W 123°08'0 0.0
2018-Jun-10 12:58N 49°18' W 123°08'0 0.0
2018-Jun-10 12:28N 49°18' W 123°08'0 0.0
2018-Jun-10 11:58N 49°18' W 123°08'0 0.0
2018-Jun-10 11:28N 49°18' W 123°08'0 0.0
2018-Jun-10 10:58N 49°18' W 123°08'0 0.0
2018-Jun-10 10:28N 49°18' W 123°08'0 0.0
2018-Jun-10 09:55N 49°18' W 123°08'0 0.0
2018-Jun-10 09:28N 49°18' W 123°08'0 0.0
2018-Jun-10 08:58N 49°18' W 123°08'0 0.0
2018-Jun-10 08:28N 49°18' W 123°08'0 0.0
2018-Jun-10 07:58N 49°18' W 123°08'0 0.0
2018-Jun-10 07:28N 49°18' W 123°08'0 0.0
2018-Jun-10 06:58N 49°18' W 123°08'0 0.0
2018-Jun-10 06:22N 49°18' W 123°08'0 0.0
2018-Jun-10 05:58N 49°18' W 123°08'0 0.0
2018-Jun-10 05:28N 49°18' W 123°08'0 0.0
2018-Jun-10 04:58N 49°18' W 123°08'0 0.0
2018-Jun-10 04:28N 49°18' W 123°08'0 0.0
2018-Jun-10 03:58N 49°18' W 123°08'0 0.0
2018-Jun-10 03:28N 49°18' W 123°08'0 0.0
2018-Jun-10 02:58N 49°18' W 123°08'0 0.0
2018-Jun-10 02:28N 49°18' W 123°08'0 0.0
2018-Jun-10 01:58N 49°18' W 123°08'0 0.0
2018-Jun-10 01:28N 49°18' W 123°08'0 0.0
2018-Jun-10 00:58N 49°18' W 123°08'0 0.0
2018-Jun-10 00:22N 49°18' W 123°08'0 0.0
2018-Jun-09 23:10N 49°18' W 123°08'0 0.0
2018-Jun-09 22:58N 49°18' W 123°08'0 0.0
2018-Jun-09 22:22N 49°18' W 123°08'0 0.0
2018-Jun-09 21:52N 49°18' W 123°08'0 0.0
2018-Jun-09 21:28N 49°18' W 123°08'0 0.1
2018-Jun-09 21:00N 49°18' W 123°07'3 5.3
2018-Jun-09 20:30N 49°19' W 123°11'510.0
2018-Jun-09 19:58N 49°15' W 123°17'8 8.5
2018-Jun-09 18:59N 49°07' W 123°17'611.8
2018-Jun-09 18:30N 49°07' W 123°08'612.1
2018-Jun-09 18:00N 49°09' W 122°60'0 0.4
2018-Jun-09 17:29N 49°09' W 122°60'0 0.0
2018-Jun-09 16:59N 49°09' W 122°60'0 0.0
2018-Jun-09 16:29N 49°09' W 122°60'0 0.0
2018-Jun-09 15:59N 49°09' W 122°60'0 0.0
2018-Jun-09 15:29N 49°09' W 122°60'0 0.0
2018-Jun-09 14:29N 49°09' W 122°60'0 0.0
2018-Jun-09 13:59N 49°09' W 122°60'0 0.0
2018-Jun-09 13:29N 49°09' W 122°60'0 0.0
2018-Jun-09 12:59N 49°09' W 122°60'0 0.0
2018-Jun-09 12:29N 49°09' W 122°60'0 0.0
2018-Jun-09 11:59N 49°09' W 122°60'0 0.0
2018-Jun-09 11:29N 49°09' W 122°60'0 0.0
2018-Jun-09 10:59N 49°09' W 122°60'0 0.0
2018-Jun-09 10:29N 49°09' W 122°60'0 0.0
2018-Jun-09 09:59N 49°09' W 122°60'0 0.0
2018-Jun-09 09:29N 49°09' W 122°60'0 0.0
2018-Jun-09 08:59N 49°09' W 122°60'0 0.0
2018-Jun-09 08:29N 49°09' W 122°60'0 0.0
2018-Jun-09 07:59N 49°09' W 122°60'0 0.0
2018-Jun-09 07:29N 49°09' W 122°60'0 0.0
2018-Jun-09 06:59N 49°09' W 122°60'0 0.0
2018-Jun-09 06:29N 49°09' W 122°60'0 0.0
2018-Jun-09 05:59N 49°09' W 122°60'0 0.0
2018-Jun-09 05:29N 49°09' W 122°60'0 0.0
2018-Jun-09 04:59N 49°09' W 122°60'0 0.0
2018-Jun-09 04:29N 49°09' W 122°60'0 0.0
2018-Jun-09 03:59N 49°09' W 122°60'0 0.0
2018-Jun-09 03:29N 49°09' W 122°60'0 0.0
2018-Jun-09 02:59N 49°09' W 122°60'0 0.0
2018-Jun-09 02:29N 49°09' W 122°60'0 0.0
2018-Jun-09 01:59N 49°09' W 122°60'0 0.0
2018-Jun-09 01:29N 49°09' W 122°60'0 0.0
2018-Jun-09 00:59N 49°09' W 122°60'0 0.0
2018-Jun-09 00:29N 49°09' W 122°60'0 0.0
2018-Jun-08 23:59N 49°09' W 122°60'0 0.0
2018-Jun-08 23:29N 49°09' W 122°60'0 0.0
2018-Jun-08 22:59N 49°09' W 122°60'0 0.0
2018-Jun-08 22:29N 49°09' W 122°60'0 0.0
2018-Jun-08 21:59N 49°09' W 122°60'0 0.0
2018-Jun-08 21:29N 49°09' W 122°60'0 0.0
2018-Jun-08 20:53N 49°09' W 122°60'0 0.0
2018-Jun-08 20:29N 49°09' W 122°60'0 0.0
2018-Jun-08 19:59N 49°09' W 122°60'0 0.0
2018-Jun-08 19:29N 49°09' W 122°60'0 0.0
2018-Jun-08 18:59N 49°09' W 122°60'0 0.0
2018-Jun-08 18:29N 49°09' W 122°60'0 0.0
2018-Jun-08 17:59N 49°09' W 122°60'0 0.0
2018-Jun-08 17:29N 49°09' W 122°60'0 0.0
2018-Jun-08 17:00N 49°09' W 122°60'0 0.0
2018-Jun-08 16:30N 49°09' W 122°60'0 0.0
2018-Jun-08 16:00N 49°09' W 122°60'0 0.0
2018-Jun-08 15:30N 49°09' W 122°60'0 0.0
2018-Jun-08 15:00N 49°09' W 122°60'0 0.0
2018-Jun-08 14:30N 49°09' W 122°60'0 0.0
2018-Jun-08 14:00N 49°09' W 122°60'0 0.0
2018-Jun-08 13:30N 49°09' W 122°60'0 0.0
2018-Jun-08 13:00N 49°09' W 122°60'0 0.0
2018-Jun-08 12:30N 49°09' W 122°60'0 0.0
2018-Jun-08 12:00N 49°09' W 122°60'0 0.0
2018-Jun-08 11:30N 49°09' W 122°60'0 0.0
2018-Jun-08 11:00N 49°09' W 122°60'0 0.0
2018-Jun-08 10:30N 49°09' W 122°60'0 0.0
2018-Jun-08 10:00N 49°09' W 122°60'0 0.0
2018-Jun-08 09:30N 49°09' W 122°60'0 0.0
2018-Jun-08 09:00N 49°09' W 122°60'0 0.0
2018-Jun-08 08:30N 49°09' W 122°60'0 0.0
2018-Jun-08 08:00N 49°09' W 122°60'0 0.0
2018-Jun-08 07:30N 49°09' W 122°60'0 0.0
2018-Jun-08 07:00N 49°09' W 122°60'0 0.0
2018-Jun-08 06:30N 49°09' W 122°60'0 0.0
2018-Jun-08 06:00N 49°09' W 122°60'0 0.0
2018-Jun-08 05:30N 49°09' W 122°60'0 0.0
2018-Jun-08 05:00N 49°09' W 122°60'0 0.0
2018-Jun-08 04:30N 49°09' W 122°60'0 0.0
2018-Jun-08 04:00N 49°09' W 122°60'0 0.0
2018-Jun-08 03:30N 49°09' W 122°60'0 0.0
2018-Jun-08 03:00N 49°09' W 122°60'0 0.0
2018-Jun-08 02:30N 49°09' W 122°60'0 0.0
2018-Jun-08 02:00N 49°09' W 122°60'0 0.0
2018-Jun-08 01:30N 49°09' W 122°60'0 0.0
2018-Jun-08 01:00N 49°09' W 122°60'0 0.0
2018-Jun-08 00:30N 49°09' W 122°60'0 0.0
2018-Jun-08 00:00N 49°09' W 122°60'0 0.0
2018-Jun-07 23:30N 49°09' W 122°60'0 0.0
2018-Jun-07 23:00N 49°09' W 122°60'0 0.0
2018-Jun-07 22:30N 49°09' W 122°60'0 0.0
2018-Jun-07 22:00N 49°09' W 122°60'0 0.0
2018-Jun-07 21:30N 49°09' W 122°60'0 0.0
2018-Jun-07 21:00N 49°09' W 122°60'0 0.0
2018-Jun-07 20:30N 49°09' W 122°60'0 0.0
2018-Jun-07 20:00N 49°09' W 122°60'0 0.0
2018-Jun-07 19:27N 49°09' W 122°60'1 1.4
2018-Jun-07 19:00N 49°09' W 123°00'0 0.6
2018-Jun-07 18:30N 49°09' W 123°00'0 0.7
2018-Jun-07 17:59N 49°09' W 122°60'0 0.0
2018-Jun-07 17:29N 49°09' W 122°60'0 0.0
2018-Jun-07 16:59N 49°09' W 122°60'0 0.0
2018-Jun-07 16:29N 49°09' W 122°60'0 0.0
2018-Jun-07 15:59N 49°09' W 122°60'0 0.0
2018-Jun-07 15:29N 49°09' W 122°60'0 0.0
2018-Jun-07 14:59N 49°09' W 122°60'0 0.0
2018-Jun-07 14:29N 49°09' W 122°60'  
Track history (hours):
 
Tides and Currents Weather Stations Pressure Air Temp Water Temp Dewpoint Dewpoint Depression Visibility Wind Speed Wind Dir Waves Ship Positions

Jeanne Sea Qua

Last reported at 2018-Jun-17 14:25 UTC. Time now 2018-Jun-18 13:10 UTC.
Position N 48°37' W 123°09'.

Length 22 m.

Type: Pleasure craft. MMSI: 367718380.

Date/timePositionNaut miles runAvg speedWind from/ knotsBaromVisibWave heightAir tempDewpointWater temp
2018-Jun-17 14:25N 48°37' W 123°09'0 0.0
2018-Jun-17 13:55N 48°37' W 123°09'0 0.0
2018-Jun-17 12:13N 48°37' W 123°09'0 0.0
2018-Jun-17 11:55N 48°37' W 123°09'0 0.0
2018-Jun-17 11:07N 48°37' W 123°09'0 0.0
2018-Jun-17 10:55N 48°37' W 123°09'0 0.0
2018-Jun-17 10:28N 48°37' W 123°09'0 0.0
2018-Jun-17 09:58N 48°37' W 123°09'0 0.0
2018-Jun-17 09:25N 48°37' W 123°09'0 0.0
2018-Jun-16 14:28N 48°37' W 123°09'0 0.0
2018-Jun-16 13:58N 48°37' W 123°09'0 0.0
2018-Jun-16 13:28N 48°37' W 123°09'0 0.0
2018-Jun-16 12:46N 48°37' W 123°09'0 0.0
2018-Jun-16 12:28N 48°37' W 123°09'0 0.0
2018-Jun-16 11:40N 48°37' W 123°09'0 0.0
2018-Jun-16 11:25N 48°37' W 123°09'0 0.0
2018-Jun-16 10:58N 48°37' W 123°09'0 0.0
2018-Jun-16 10:28N 48°37' W 123°09'0 0.0
2018-Jun-16 09:58N 48°37' W 123°09'0 0.0
2018-Jun-16 09:22N 48°37' W 123°09'0 0.0
2018-Jun-14 13:53N 48°37' W 123°09'0 0.0
2018-Jun-14 13:20N 48°37' W 123°09'0 0.0
2018-Jun-14 12:59N 48°37' W 123°09'0 0.0
2018-Jun-14 12:29N 48°37' W 123°09'0 0.0
2018-Jun-14 11:56N 48°37' W 123°09'0 0.0
2018-Jun-14 11:26N 48°37' W 123°09'0 0.0
2018-Jun-14 10:56N 48°37' W 123°09'0 0.0
2018-Jun-14 10:26N 48°37' W 123°09'0 0.0
2018-Jun-14 09:59N 48°37' W 123°09'0 0.0
2018-Jun-14 09:26N 48°37' W 123°09'0 0.0
2018-Jun-14 08:56N 48°37' W 123°09'0 0.0
2018-Jun-14 08:29N 48°37' W 123°09'0 0.0
2018-Jun-14 07:56N 48°37' W 123°09'0 0.0
2018-Jun-14 07:26N 48°37' W 123°09'1 0.1
2018-Jun-13 18:26N 48°38' W 123°11'4 8.2
2018-Jun-13 17:57N 48°41' W 123°14'4 8.8
2018-Jun-13 17:29N 48°44' W 123°17'5 9.0
2018-Jun-13 16:59N 48°48' W 123°20'1410.1
2018-Jun-13 15:37N 49°02' W 123°20'610.7
2018-Jun-13 15:05N 49°08' W 123°20'110.3
2018-Jun-13 14:58N 49°09' W 123°20'510.1
2018-Jun-13 14:28N 49°14' W 123°18'510.0
2018-Jun-13 13:56N 49°18' W 123°13'4 9.8
2018-Jun-13 13:29N 49°18' W 123°07'1 1.0
2018-Jun-13 12:55N 49°18' W 123°08'0 0.0
2018-Jun-13 12:28N 49°18' W 123°08'0 0.0
2018-Jun-13 11:55N 49°18' W 123°08'0 0.0
2018-Jun-13 11:28N 49°18' W 123°08'0 0.0
2018-Jun-13 10:58N 49°18' W 123°08'0 0.0
2018-Jun-13 10:25N 49°18' W 123°08'0 0.0
2018-Jun-13 09:58N 49°18' W 123°08'0 0.0
2018-Jun-13 09:28N 49°18' W 123°08'0 0.0
2018-Jun-13 08:58N 49°18' W 123°08'0 0.0
2018-Jun-13 08:28N 49°18' W 123°08'0 0.0
2018-Jun-13 07:55N 49°18' W 123°08'0 0.1
2018-Jun-13 07:28N 49°18' W 123°07'0 0.1
2018-Jun-13 06:58N 49°18' W 123°08'0 0.0
2018-Jun-13 06:25N 49°18' W 123°08'0 0.0
2018-Jun-13 05:58N 49°18' W 123°08'0 0.0
2018-Jun-13 05:28N 49°18' W 123°08'0 0.0
2018-Jun-13 04:55N 49°18' W 123°08'0 0.0
2018-Jun-13 04:22N 49°18' W 123°08'0 0.1
2018-Jun-13 03:58N 49°18' W 123°07'0 0.1
2018-Jun-13 03:28N 49°18' W 123°08'0 0.0
2018-Jun-13 02:55N 49°18' W 123°08'0 0.0
2018-Jun-13 02:28N 49°18' W 123°08'0 0.0
2018-Jun-13 01:58N 49°18' W 123°08'0 0.0
2018-Jun-13 01:28N 49°18' W 123°08'0 0.1
2018-Jun-13 00:52N 49°18' W 123°07'0 0.0
2018-Jun-13 00:28N 49°18' W 123°07'0 0.1
2018-Jun-12 23:58N 49°18' W 123°08'0 0.0
2018-Jun-12 23:25N 49°18' W 123°08'0 0.0
2018-Jun-12 22:58N 49°18' W 123°08'0 0.0
2018-Jun-12 22:28N 49°18' W 123°08'0 0.0
2018-Jun-12 21:52N 49°18' W 123°08'0 0.0
2018-Jun-12 21:22N 49°18' W 123°08'0 0.0
2018-Jun-12 20:55N 49°18' W 123°08'0 0.0
2018-Jun-12 20:25N 49°18' W 123°08'0 0.0
2018-Jun-12 19:49N 49°18' W 123°08'0 0.0
2018-Jun-12 19:28N 49°18' W 123°08'0 0.0
2018-Jun-12 18:55N 49°18' W 123°08'0 0.0
2018-Jun-12 18:25N 49°18' W 123°08'0 0.0
2018-Jun-12 17:49N 49°18' W 123°08'0 0.0
2018-Jun-12 17:25N 49°18' W 123°08'0 0.0
2018-Jun-12 16:55N 49°18' W 123°08'0 0.0
2018-Jun-12 16:25N 49°18' W 123°08'0 0.0
2018-Jun-12 15:58N 49°18' W 123°08'0 0.0
2018-Jun-12 15:28N 49°18' W 123°08'0 0.0
2018-Jun-12 14:58N 49°18' W 123°08'0 0.0
2018-Jun-12 14:28N 49°18' W 123°08'0 0.0
2018-Jun-12 13:58N 49°18' W 123°08'0 0.0
2018-Jun-12 13:28N 49°18' W 123°08'0 0.0
2018-Jun-12 12:58N 49°18' W 123°08'0 0.0
2018-Jun-12 12:28N 49°18' W 123°08'0 0.0
2018-Jun-12 11:58N 49°18' W 123°08'0 0.0
2018-Jun-12 11:28N 49°18' W 123°08'0 0.0
2018-Jun-12 10:58N 49°18' W 123°08'0 0.0
2018-Jun-12 10:28N 49°18' W 123°08'0 0.0
2018-Jun-12 09:58N 49°18' W 123°08'0 0.0
2018-Jun-12 09:28N 49°18' W 123°08'0 0.0
2018-Jun-12 08:58N 49°18' W 123°08'0 0.0
2018-Jun-12 08:28N 49°18' W 123°08'0 0.0
2018-Jun-12 07:58N 49°18' W 123°08'0 0.1
2018-Jun-12 07:28N 49°18' W 123°07'0 0.1
2018-Jun-12 06:58N 49°18' W 123°08'0 0.0
2018-Jun-12 06:28N 49°18' W 123°08'0 0.0
2018-Jun-12 05:58N 49°18' W 123°08'0 0.0
2018-Jun-12 05:28N 49°18' W 123°08'0 0.0
2018-Jun-12 04:58N 49°18' W 123°08'0 0.0
2018-Jun-12 04:28N 49°18' W 123°08'0 0.0
2018-Jun-12 03:52N 49°18' W 123°08'0 0.0
2018-Jun-12 03:10N 49°18' W 123°08'0 0.0
2018-Jun-12 02:52N 49°18' W 123°08'0 0.0
2018-Jun-12 02:28N 49°18' W 123°08'0 0.0
2018-Jun-12 01:58N 49°18' W 123°08'0 0.0
2018-Jun-12 01:28N 49°18' W 123°08'0 0.0
2018-Jun-12 00:58N 49°18' W 123°08'0 0.5
2018-Jun-12 00:21N 49°18' W 123°07'0 0.9
2018-Jun-12 00:00N 49°18' W 123°08'0 0.0
2018-Jun-11 23:30N 49°18' W 123°08'0 0.0
2018-Jun-11 23:00N 49°18' W 123°08'0 0.0
2018-Jun-11 22:30N 49°18' W 123°08'0 0.0
2018-Jun-11 22:00N 49°18' W 123°08'0 0.0
2018-Jun-11 21:30N 49°18' W 123°08'0 0.0
2018-Jun-11 21:00N 49°18' W 123°08'0 0.0
2018-Jun-11 20:30N 49°18' W 123°08'0 0.0
2018-Jun-11 20:00N 49°18' W 123°08'0 0.0
2018-Jun-11 19:30N 49°18' W 123°08'0 0.0
2018-Jun-11 19:00N 49°18' W 123°08'0 0.0
2018-Jun-11 18:30N 49°18' W 123°08'0 0.0
2018-Jun-11 17:58N 49°18' W 123°08'0 0.0
2018-Jun-11 17:28N 49°18' W 123°08'0 0.0
2018-Jun-11 16:58N 49°18' W 123°08'0 0.0
2018-Jun-11 16:28N 49°18' W 123°08'0 0.0
2018-Jun-11 15:52N 49°18' W 123°08'0 0.0
2018-Jun-11 15:28N 49°18' W 123°08'0 0.0
2018-Jun-11 14:58N 49°18' W 123°08'0 0.0
2018-Jun-11 14:28N 49°18' W 123°08'0 0.0
2018-Jun-11 13:55N 49°18' W 123°08'0 0.0
2018-Jun-11 13:28N 49°18' W 123°08'0 0.0
2018-Jun-11 12:58N 49°18' W 123°08'0 0.0
2018-Jun-11 12:28N 49°18' W 123°08'0 0.0
2018-Jun-11 11:58N 49°18' W 123°08'0 0.0
2018-Jun-11 11:28N 49°18' W 123°08'0 0.0
2018-Jun-11 10:58N 49°18' W 123°08'0 0.0
2018-Jun-11 10:25N 49°18' W 123°08'0 0.0
2018-Jun-11 09:58N 49°18' W 123°08'0 0.0
2018-Jun-11 09:28N 49°18' W 123°08'0 0.0
2018-Jun-11 08:58N 49°18' W 123°08'0 0.0
2018-Jun-11 08:28N 49°18' W 123°08'0 0.0
2018-Jun-11 07:58N 49°18' W 123°08'0 0.0
2018-Jun-11 07:28N 49°18' W 123°08'0 0.0
2018-Jun-11 06:58N 49°18' W 123°08'0 0.0
2018-Jun-11 06:25N 49°18' W 123°08'0 0.0
2018-Jun-11 05:58N 49°18' W 123°08'0 0.0
2018-Jun-11 05:28N 49°18' W 123°08'0 0.0
2018-Jun-11 04:40N 49°18' W 123°08'0 0.0
2018-Jun-11 04:28N 49°18' W 123°08'0 0.0
2018-Jun-11 03:58N 49°18' W 123°08'0 0.0
2018-Jun-11 03:22N 49°18' W 123°08'0 0.0
2018-Jun-11 02:58N 49°18' W 123°08'0 0.0
2018-Jun-11 02:28N 49°18' W 123°08'0 0.0
2018-Jun-11 01:52N 49°18' W 123°08'0 0.0
2018-Jun-11 01:28N 49°18' W 123°08'0 0.0
2018-Jun-11 00:58N 49°18' W 123°08'0 0.0
2018-Jun-11 00:28N 49°18' W 123°08'0 0.0
2018-Jun-10 23:46N 49°18' W 123°08'0 0.0
2018-Jun-10 23:28N 49°18' W 123°08'0 0.0
2018-Jun-10 22:58N 49°18' W 123°08'0 0.0
2018-Jun-10 22:28N 49°18' W 123°08'0 0.0
2018-Jun-10 21:58N 49°18' W 123°08'0 0.0
2018-Jun-10 21:28N 49°18' W 123°08'0 0.0
2018-Jun-10 20:58N 49°18' W 123°08'0 0.0
2018-Jun-10 20:16N 49°18' W 123°08'0 0.0
2018-Jun-10 19:58N 49°18' W 123°08'0 0.0
2018-Jun-10 19:28N 49°18' W 123°08'0 0.0
2018-Jun-10 18:52N 49°18' W 123°08'0 0.0
2018-Jun-10 18:22N 49°18' W 123°08'0 0.0
2018-Jun-10 17:58N 49°18' W 123°08'0 0.0
2018-Jun-10 17:28N 49°18' W 123°08'0 0.0
2018-Jun-10 16:58N 49°18' W 123°08'0 0.0
2018-Jun-10 16:28N 49°18' W 123°08'0 0.0
2018-Jun-10 15:58N 49°18' W 123°08'0 0.0
2018-Jun-10 15:28N 49°18' W 123°08'0 0.0
2018-Jun-10 14:58N 49°18' W 123°08'0 0.0
2018-Jun-10 14:28N 49°18' W 123°08'0 0.0
2018-Jun-10 13:28N 49°18' W 123°08'0 0.0
2018-Jun-10 12:58N 49°18' W 123°08'0 0.0
2018-Jun-10 12:28N 49°18' W 123°08'0 0.0
2018-Jun-10 11:58N 49°18' W 123°08'0 0.0
2018-Jun-10 11:28N 49°18' W 123°08'0 0.0
2018-Jun-10 10:58N 49°18' W 123°08'0 0.0
2018-Jun-10 10:28N 49°18' W 123°08'0 0.0
2018-Jun-10 09:55N 49°18' W 123°08'0 0.0
2018-Jun-10 09:28N 49°18' W 123°08'0 0.0
2018-Jun-10 08:58N 49°18' W 123°08'0 0.0
2018-Jun-10 08:28N 49°18' W 123°08'0 0.0
2018-Jun-10 07:58N 49°18' W 123°08'0 0.0
2018-Jun-10 07:28N 49°18' W 123°08'0 0.0
2018-Jun-10 06:58N 49°18' W 123°08'0 0.0
2018-Jun-10 06:22N 49°18' W 123°08'0 0.0
2018-Jun-10 05:58N 49°18' W 123°08'0 0.0
2018-Jun-10 05:28N 49°18' W 123°08'0 0.0
2018-Jun-10 04:58N 49°18' W 123°08'0 0.0
2018-Jun-10 04:28N 49°18' W 123°08'0 0.0
2018-Jun-10 03:58N 49°18' W 123°08'0 0.0
2018-Jun-10 03:28N 49°18' W 123°08'0 0.0
2018-Jun-10 02:58N 49°18' W 123°08'0 0.0
2018-Jun-10 02:28N 49°18' W 123°08'0 0.0
2018-Jun-10 01:58N 49°18' W 123°08'0 0.0
2018-Jun-10 01:28N 49°18' W 123°08'0 0.0
2018-Jun-10 00:58N 49°18' W 123°08'0 0.0
2018-Jun-10 00:22N 49°18' W 123°08'0 0.0
2018-Jun-09 23:10N 49°18' W 123°08'0 0.0
2018-Jun-09 22:58N 49°18' W 123°08'0 0.0
2018-Jun-09 22:22N 49°18' W 123°08'0 0.0
2018-Jun-09 21:52N 49°18' W 123°08'0 0.0
2018-Jun-09 21:28N 49°18' W 123°08'0 0.1
2018-Jun-09 21:00N 49°18' W 123°07'3 5.3
2018-Jun-09 20:30N 49°19' W 123°11'510.0
2018-Jun-09 19:58N 49°15' W 123°17'8 8.5
2018-Jun-09 18:59N 49°07' W 123°17'611.8
2018-Jun-09 18:30N 49°07' W 123°08'612.1
2018-Jun-09 18:00N 49°09' W 122°60'0 0.4
2018-Jun-09 17:29N 49°09' W 122°60'0 0.0
2018-Jun-09 16:59N 49°09' W 122°60'0 0.0
2018-Jun-09 16:29N 49°09' W 122°60'0 0.0
2018-Jun-09 15:59N 49°09' W 122°60'0 0.0
2018-Jun-09 15:29N 49°09' W 122°60'0 0.0
2018-Jun-09 14:29N 49°09' W 122°60'0 0.0
2018-Jun-09 13:59N 49°09' W 122°60'0 0.0
2018-Jun-09 13:29N 49°09' W 122°60'0 0.0
2018-Jun-09 12:59N 49°09' W 122°60'0 0.0
2018-Jun-09 12:29N 49°09' W 122°60'0 0.0
2018-Jun-09 11:59N 49°09' W 122°60'0 0.0
2018-Jun-09 11:29N 49°09' W 122°60'0 0.0
2018-Jun-09 10:59N 49°09' W 122°60'0 0.0
2018-Jun-09 10:29N 49°09' W 122°60'0 0.0
2018-Jun-09 09:59N 49°09' W 122°60'0 0.0
2018-Jun-09 09:29N 49°09' W 122°60'0 0.0
2018-Jun-09 08:59N 49°09' W 122°60'0 0.0
2018-Jun-09 08:29N 49°09' W 122°60'0 0.0
2018-Jun-09 07:59N 49°09' W 122°60'0 0.0
2018-Jun-09 07:29N 49°09' W 122°60'0 0.0
2018-Jun-09 06:59N 49°09' W 122°60'0 0.0
2018-Jun-09 06:29N 49°09' W 122°60'0 0.0
2018-Jun-09 05:59N 49°09' W 122°60'0 0.0
2018-Jun-09 05:29N 49°09' W 122°60'0 0.0
2018-Jun-09 04:59N 49°09' W 122°60'0 0.0
2018-Jun-09 04:29N 49°09' W 122°60'0 0.0
2018-Jun-09 03:59N 49°09' W 122°60'0 0.0
2018-Jun-09 03:29N 49°09' W 122°60'0 0.0
2018-Jun-09 02:59N 49°09' W 122°60'0 0.0
2018-Jun-09 02:29N 49°09' W 122°60'0 0.0
2018-Jun-09 01:59N 49°09' W 122°60'0 0.0
2018-Jun-09 01:29N 49°09' W 122°60'0 0.0
2018-Jun-09 00:59N 49°09' W 122°60'0 0.0
2018-Jun-09 00:29N 49°09' W 122°60'0 0.0
2018-Jun-08 23:59N 49°09' W 122°60'0 0.0
2018-Jun-08 23:29N 49°09' W 122°60'0 0.0
2018-Jun-08 22:59N 49°09' W 122°60'0 0.0
2018-Jun-08 22:29N 49°09' W 122°60'0 0.0
2018-Jun-08 21:59N 49°09' W 122°60'0 0.0
2018-Jun-08 21:29N 49°09' W 122°60'0 0.0
2018-Jun-08 20:53N 49°09' W 122°60'0 0.0
2018-Jun-08 20:29N 49°09' W 122°60'0 0.0
2018-Jun-08 19:59N 49°09' W 122°60'0 0.0
2018-Jun-08 19:29N 49°09' W 122°60'0 0.0
2018-Jun-08 18:59N 49°09' W 122°60'0 0.0
2018-Jun-08 18:29N 49°09' W 122°60'0 0.0
2018-Jun-08 17:59N 49°09' W 122°60'0 0.0
2018-Jun-08 17:29N 49°09' W 122°60'0 0.0
2018-Jun-08 17:00N 49°09' W 122°60'0 0.0
2018-Jun-08 16:30N 49°09' W 122°60'0 0.0
2018-Jun-08 16:00N 49°09' W 122°60'0 0.0
2018-Jun-08 15:30N 49°09' W 122°60'0 0.0
2018-Jun-08 15:00N 49°09' W 122°60'0 0.0
2018-Jun-08 14:30N 49°09' W 122°60'0 0.0
2018-Jun-08 14:00N 49°09' W 122°60'0 0.0
2018-Jun-08 13:30N 49°09' W 122°60'0 0.0
2018-Jun-08 13:00N 49°09' W 122°60'0 0.0
2018-Jun-08 12:30N 49°09' W 122°60'0 0.0
2018-Jun-08 12:00N 49°09' W 122°60'0 0.0
2018-Jun-08 11:30N 49°09' W 122°60'0 0.0
2018-Jun-08 11:00N 49°09' W 122°60'0 0.0
2018-Jun-08 10:30N 49°09' W 122°60'0 0.0
2018-Jun-08 10:00N 49°09' W 122°60'0 0.0
2018-Jun-08 09:30N 49°09' W 122°60'0 0.0
2018-Jun-08 09:00N 49°09' W 122°60'0 0.0
2018-Jun-08 08:30N 49°09' W 122°60'0 0.0
2018-Jun-08 08:00N 49°09' W 122°60'0 0.0
2018-Jun-08 07:30N 49°09' W 122°60'0 0.0
2018-Jun-08 07:00N 49°09' W 122°60'0 0.0
2018-Jun-08 06:30N 49°09' W 122°60'0 0.0
2018-Jun-08 06:00N 49°09' W 122°60'0 0.0
2018-Jun-08 05:30N 49°09' W 122°60'0 0.0
2018-Jun-08 05:00N 49°09' W 122°60'0 0.0
2018-Jun-08 04:30N 49°09' W 122°60'0 0.0
2018-Jun-08 04:00N 49°09' W 122°60'0 0.0
2018-Jun-08 03:30N 49°09' W 122°60'0 0.0
2018-Jun-08 03:00N 49°09' W 122°60'0 0.0
2018-Jun-08 02:30N 49°09' W 122°60'0 0.0
2018-Jun-08 02:00N 49°09' W 122°60'0 0.0
2018-Jun-08 01:30N 49°09' W 122°60'0 0.0
2018-Jun-08 01:00N 49°09' W 122°60'0 0.0
2018-Jun-08 00:30N 49°09' W 122°60'0 0.0
2018-Jun-08 00:00N 49°09' W 122°60'0 0.0
2018-Jun-07 23:30N 49°09' W 122°60'0 0.0
2018-Jun-07 23:00N 49°09' W 122°60'0 0.0
2018-Jun-07 22:30N 49°09' W 122°60'0 0.0
2018-Jun-07 22:00N 49°09' W 122°60'0 0.0
2018-Jun-07 21:30N 49°09' W 122°60'0 0.0
2018-Jun-07 21:00N 49°09' W 122°60'0 0.0
2018-Jun-07 20:30N 49°09' W 122°60'0 0.0
2018-Jun-07 20:00N 49°09' W 122°60'0 0.0
2018-Jun-07 19:27N 49°09' W 122°60'1 1.4
2018-Jun-07 19:00N 49°09' W 123°00'0 0.6
2018-Jun-07 18:30N 49°09' W 123°00'0 0.7
2018-Jun-07 17:59N 49°09' W 122°60'0 0.0
2018-Jun-07 17:29N 49°09' W 122°60'0 0.0
2018-Jun-07 16:59N 49°09' W 122°60'0 0.0
2018-Jun-07 16:29N 49°09' W 122°60'0 0.0
2018-Jun-07 15:59N 49°09' W 122°60'0 0.0
2018-Jun-07 15:29N 49°09' W 122°60'0 0.0
2018-Jun-07 14:59N 49°09' W 122°60'0 0.0
2018-Jun-07 14:29N 49°09' W 122°60'  

Dump ship's entire track history